Time,TemperatureF,DewpointF,PressureIn,WindDirection,WindDirectionDegrees,WindSpeedMPH,WindSpeedGustMPH,Humidity,HourlyPrecipIn,Conditions,Clouds,dailyrainin,SoftwareType,DateUTC
2013-02-20 00:00:00,31.3,29.5,30.18,NNW,338,0.0,0.0,93,0.00,,,0.00,VWS V14.01,2013-02-20 05:00:00,
2013-02-20 00:30:00,30.1,28.3,30.19,NNW,338,0.0,0.0,93,0.00,,,0.00,VWS V14.01,2013-02-20 05:30:00,
2013-02-20 01:00:00,28.9,27.1,30.20,NNW,338,0.0,0.0,93,0.00,,,0.00,VWS V14.01,2013-02-20 06:00:00,
2013-02-20 01:30:00,28.3,26.8,30.21,NNW,338,0.0,0.0,94,0.00,,,0.00,VWS V14.01,2013-02-20 06:30:00,
2013-02-20 02:00:00,27.7,25.9,30.22,NE,45,0.0,2.0,93,0.00,,,0.00,VWS V14.01,2013-02-20 07:00:00,
2013-02-20 02:30:00,27.8,26.3,30.21,NE,45,0.0,0.0,94,0.00,,,0.00,VWS V14.01,2013-02-20 07:30:00,
2013-02-20 03:00:00,27.4,25.6,30.21,WSW,248,0.0,2.0,93,0.00,,,0.00,VWS V14.01,2013-02-20 08:00:00,
2013-02-20 03:30:00,27.6,25.6,30.21,WSW,248,0.0,0.0,92,0.00,,,0.00,VWS V14.01,2013-02-20 08:30:00,
2013-02-20 04:00:00,26.9,24.6,30.22,WSW,248,0.0,0.0,91,0.00,,,0.00,VWS V14.01,2013-02-20 09:00:00,
2013-02-20 04:30:00,26.2,23.9,30.22,WSW,248,0.0,0.0,91,0.00,,,0.00,VWS V14.01,2013-02-20 09:30:00,
2013-02-20 05:00:00,26.0,23.5,30.23,WSW,248,0.0,1.0,90,0.00,,,0.00,VWS V14.01,2013-02-20 10:00:00,
2013-02-20 05:30:00,25.8,23.3,30.24,WSW,248,0.0,0.0,90,0.00,,,0.00,VWS V14.01,2013-02-20 10:30:00,
2013-02-20 06:00:00,25.1,22.3,30.24,WSW,248,0.0,0.0,89,0.00,,,0.00,VWS V14.01,2013-02-20 11:00:00,
2013-02-20 06:30:00,24.3,21.5,30.25,WSW,248,0.0,0.0,89,0.00,,,0.00,VWS V14.01,2013-02-20 11:30:00,
2013-02-20 07:00:00,23.5,20.7,30.25,WSW,248,0.0,0.0,89,0.00,,,0.00,VWS V14.01,2013-02-20 12:00:00,
2013-02-20 07:30:00,23.0,20.5,30.26,WSW,248,0.0,0.0,90,0.00,,,0.00,VWS V14.01,2013-02-20 12:30:00,
2013-02-20 08:00:00,25.4,23.4,30.27,WSW,248,0.0,0.0,92,0.00,,,0.00,VWS V14.01,2013-02-20 13:00:00,
2013-02-20 08:30:00,31.8,28.4,30.28,WSW,248,0.0,0.0,87,0.00,,,0.00,VWS V14.01,2013-02-20 13:30:00,
2013-02-20 09:00:00,37.3,23.9,30.27,NW,315,0.0,7.0,58,0.00,,,0.00,VWS V14.01,2013-02-20 14:00:00,
2013-02-20 09:30:00,39.5,22.9,30.27,North,0,0.0,6.0,51,0.00,,,0.00,VWS V14.01,2013-02-20 14:30:00,
2013-02-20 10:00:00,41.6,20.8,30.28,NW,315,1.0,10.0,43,0.00,,,0.00,VWS V14.01,2013-02-20 15:00:00,
2013-02-20 10:30:00,42.8,22.4,30.29,NNE,22,1.0,11.0,44,0.00,,,0.00,VWS V14.01,2013-02-20 15:30:00,
2013-02-20 11:00:00,44.2,19.0,30.29,NW,315,1.0,10.0,36,0.00,,,0.00,VWS V14.01,2013-02-20 16:00:00,
2013-02-20 11:30:00,45.0,19.0,30.28,SW,225,1.0,13.0,35,0.00,,,0.00,VWS V14.01,2013-02-20 16:30:00,
2013-02-20 12:00:00,46.0,18.5,30.28,WNW,292,2.0,12.0,33,0.00,,,0.00,VWS V14.01,2013-02-20 17:00:00,
2013-02-20 12:30:00,47.0,18.0,30.26,SW,225,2.0,13.0,31,0.00,,,0.00,VWS V14.01,2013-02-20 17:30:00,
2013-02-20 13:00:00,49.4,20.8,30.24,WNW,292,1.0,10.0,32,0.00,,,0.00,VWS V14.01,2013-02-20 18:00:00,
2013-02-20 13:30:00,49.3,19.2,30.23,NW,315,2.0,12.0,30,0.00,,,0.00,VWS V14.01,2013-02-20 18:30:00,
2013-02-20 14:00:00,51.8,20.6,30.22,NW,315,2.0,13.0,29,0.00,,,0.00,VWS V14.01,2013-02-20 19:00:00,
2013-02-20 14:30:00,51.9,21.5,30.21,WNW,292,2.0,14.0,30,0.00,,,0.00,VWS V14.01,2013-02-20 19:30:00,
2013-02-20 15:00:00,52.7,18.8,30.20,SW,225,2.0,10.0,26,0.00,,,0.00,VWS V14.01,2013-02-20 20:00:00,
2013-02-20 15:30:00,52.5,20.4,30.20,SW,225,2.0,14.0,28,0.00,,,0.00,VWS V14.01,2013-02-20 20:30:00,
2013-02-20 16:00:00,53.1,17.3,30.21,WNW,292,1.0,11.0,24,0.00,,,0.00,VWS V14.01,2013-02-20 21:00:00,
2013-02-20 16:30:00,51.9,19.0,30.20,SW,225,1.0,10.0,27,0.00,,,0.00,VWS V14.01,2013-02-20 21:30:00,
2013-02-20 17:00:00,51.7,17.0,30.22,NW,315,1.0,7.0,25,0.00,,,0.00,VWS V14.01,2013-02-20 22:00:00,
2013-02-20 17:30:00,50.7,15.2,30.24,West,270,0.0,6.0,24,0.00,,,0.00,VWS V14.01,2013-02-20 22:30:00,
2013-02-20 18:00:00,49.2,19.1,30.24,North,0,0.0,5.0,30,0.00,,,0.00,VWS V14.01,2013-02-20 23:00:00,
2013-02-20 18:30:00,46.6,23.6,30.26,NNE,22,0.0,3.0,40,0.00,,,0.00,VWS V14.01,2013-02-20 23:30:00,
2013-02-20 19:00:00,43.3,22.9,30.28,NE,45,0.0,1.0,44,0.00,,,0.00,VWS V14.01,2013-02-21 00:00:00,
2013-02-20 19:30:00,40.2,22.1,30.28,NE,45,0.0,1.0,48,0.00,,,0.00,VWS V14.01,2013-02-21 00:30:00,
2013-02-20 20:00:00,37.8,19.4,30.29,NE,45,0.0,1.0,47,0.00,,,0.00,VWS V14.01,2013-02-21 01:00:00,
2013-02-20 20:30:00,35.9,17.6,30.30,NE,45,0.0,5.0,47,0.00,,,0.00,VWS V14.01,2013-02-21 01:30:00,
2013-02-20 21:00:00,36.6,20.6,30.31,SSW,202,0.0,4.0,52,0.00,,,0.00,VWS V14.01,2013-02-21 02:00:00,
2013-02-20 21:30:00,36.6,17.3,30.32,NNE,22,0.0,1.0,45,0.00,,,0.00,VWS V14.01,2013-02-21 02:30:00,
2013-02-20 22:00:00,35.5,18.2,30.33,NNE,22,0.0,1.0,49,0.00,,,0.00,VWS V14.01,2013-02-21 03:00:00,
2013-02-20 22:30:00,35.4,16.2,30.34,ENE,68,0.0,2.0,45,0.00,,,0.00,VWS V14.01,2013-02-21 03:30:00,
2013-02-20 23:00:00,34.3,16.7,30.33,ENE,68,0.0,1.0,48,0.00,,,0.00,VWS V14.01,2013-02-21 04:00:00,
2013-02-20 23:30:00,32.9,16.3,30.33,ENE,68,0.0,3.0,50,0.00,,,0.00,VWS V14.01,2013-02-21 04:30:00,